WZZ911 LFMN-EPWA
Flight info
| Callsign | WZZ911 |
|---|---|
| Flight time | 1h 53m |
| Altitude | 35000 |
| Route | BASIP8A BASIP DCT ANAKI DCT MALUG DCT NETIR DCT KOTEK M866 LOGDA LOGDA6N |
| Aircraft | A21N/M-SDE1E2E3FGIJ1J4RWXY/LB1 |
Departure
| Time | 2026-05-04 07:04 |
|---|---|
| Airport | Nice-Côte d'Azur Airport (LFMN) |
Arrival
| Time | 2026-05-04 08:57 |
|---|---|
| Airport | Warsaw Chopin Airport (EPWA) |
| Time | Latitude | Longitude | Altitude | Speed | Heading |
|---|---|---|---|---|---|
| 2026-05-04 06:27 | 43.66171 | 7.20669 | 27 ft | 0 kts | 261° |
| 2026-05-04 06:53 | 43.66172 | 7.20679 | 28 ft | 2 kts | 261° |
| 2026-05-04 06:53 | 43.66175 | 7.20700 | 28 ft | 2 kts | 260° |
| 2026-05-04 06:53 | 43.66177 | 7.20720 | 28 ft | 2 kts | 261° |
| 2026-05-04 06:54 | 43.66180 | 7.20741 | 28 ft | 2 kts | 260° |
| 2026-05-04 06:54 | 43.66181 | 7.20755 | 28 ft | 2 kts | 251° |
| 2026-05-04 06:54 | 43.66190 | 7.20770 | 28 ft | 2 kts | 208° |
| 2026-05-04 06:54 | 43.66204 | 7.20775 | 28 ft | 0 kts | 175° |
| 2026-05-04 06:55 | 43.66209 | 7.20774 | 28 ft | 1 kts | 168° |
| 2026-05-04 06:55 | 43.66212 | 7.20773 | 28 ft | 0 kts | 170° |
| 2026-05-04 06:57 | 43.66117 | 7.20793 | 26 ft | 10 kts | 169° |
| 2026-05-04 06:58 | 43.66044 | 7.20810 | 25 ft | 11 kts | 170° |
| 2026-05-04 06:58 | 43.65960 | 7.20829 | 23 ft | 13 kts | 169° |
| 2026-05-04 06:58 | 43.65866 | 7.20851 | 21 ft | 13 kts | 171° |
| 2026-05-04 06:58 | 43.65771 | 7.20869 | 20 ft | 12 kts | 184° |
| 2026-05-04 06:59 | 43.65706 | 7.20804 | 21 ft | 10 kts | 225° |
| 2026-05-04 06:59 | 43.65651 | 7.20730 | 20 ft | 11 kts | 223° |
| 2026-05-04 06:59 | 43.65591 | 7.20646 | 19 ft | 13 kts | 226° |
| 2026-05-04 06:59 | 43.65522 | 7.20552 | 18 ft | 15 kts | 224° |
| 2026-05-04 07:01 | 43.65012 | 7.20387 | 14 ft | 13 kts | 225° |
| 2026-05-04 07:01 | 43.64940 | 7.20289 | 12 ft | 15 kts | 225° |
| 2026-05-04 07:02 | 43.64868 | 7.20189 | 11 ft | 10 kts | 225° |
| 2026-05-04 07:02 | 43.64808 | 7.20136 | 11 ft | 10 kts | 188° |
| 2026-05-04 07:02 | 43.64742 | 7.20182 | 12 ft | 10 kts | 134° |
| 2026-05-04 07:02 | 43.64697 | 7.20250 | 13 ft | 6 kts | 122° |
| 2026-05-04 07:03 | 43.64711 | 7.20297 | 14 ft | 5 kts | 45° |
| 2026-05-04 07:03 | 43.64765 | 7.20372 | 14 ft | 33 kts | 44° |
| 2026-05-04 07:03 | 43.65101 | 7.20832 | 17 ft | 101 kts | 45° |
| 2026-05-04 07:03 | 43.65745 | 7.21718 | 18 ft | 158 kts | 45° |
| 2026-05-04 07:04 | 43.66601 | 7.22908 | 326 ft | 178 kts | 44° |
| 2026-05-04 07:04 | 43.67440 | 7.24159 | 933 ft | 182 kts | 58° |
| 2026-05-04 07:04 | 43.67602 | 7.25852 | 1589 ft | 187 kts | 107° |
| 2026-05-04 07:04 | 43.66901 | 7.27337 | 2239 ft | 187 kts | 128° |
| 2026-05-04 07:05 | 43.66036 | 7.28632 | 2853 ft | 186 kts | 131° |
| 2026-05-04 07:05 | 43.65110 | 7.29874 | 3447 ft | 186 kts | 135° |
| 2026-05-04 07:05 | 43.64160 | 7.31111 | 3892 ft | 194 kts | 132° |
| 2026-05-04 07:05 | 43.63350 | 7.32680 | 4178 ft | 208 kts | 108° |
| 2026-05-04 07:06 | 43.63925 | 7.36647 | 5068 ft | 225 kts | 63° |
| 2026-05-04 07:06 | 43.64601 | 7.38551 | 5827 ft | 222 kts | 67° |
| 2026-05-04 07:06 | 43.65203 | 7.40502 | 6443 ft | 225 kts | 69° |
| 2026-05-04 07:07 | 43.65776 | 7.42538 | 7020 ft | 228 kts | 71° |
| 2026-05-04 07:08 | 43.69999 | 7.58457 | 10198 ft | 285 kts | 72° |
| 2026-05-04 07:09 | 43.70676 | 7.61007 | 10777 ft | 288 kts | 72° |
| 2026-05-04 07:09 | 43.71371 | 7.63635 | 11194 ft | 296 kts | 72° |
| 2026-05-04 07:09 | 43.72097 | 7.66383 | 11456 ft | 311 kts | 72° |
| 2026-05-04 07:09 | 43.72870 | 7.69222 | 11717 ft | 326 kts | 69° |
| 2026-05-04 07:10 | 43.73963 | 7.72033 | 12054 ft | 339 kts | 58° |
| 2026-05-04 07:10 | 43.75419 | 7.74622 | 12587 ft | 344 kts | 50° |
| 2026-05-04 07:12 | 43.86820 | 7.92374 | 16437 ft | 362 kts | 49° |
| 2026-05-04 07:12 | 43.88450 | 7.95057 | 16953 ft | 364 kts | 53° |
| 2026-05-04 07:12 | 43.89905 | 7.97898 | 17451 ft | 365 kts | 58° |
| 2026-05-04 07:12 | 43.91198 | 8.00897 | 17944 ft | 367 kts | 60° |
| 2026-05-04 07:13 | 43.92470 | 8.04013 | 18412 ft | 369 kts | 61° |
| 2026-05-04 07:13 | 43.93728 | 8.07120 | 18859 ft | 372 kts | 61° |
| 2026-05-04 07:13 | 43.94999 | 8.10253 | 19277 ft | 375 kts | 61° |
| 2026-05-04 07:14 | 44.00203 | 8.23064 | 20896 ft | 387 kts | 61° |
| 2026-05-04 07:14 | 44.01528 | 8.26332 | 21283 ft | 389 kts | 61° |
| 2026-05-04 07:15 | 44.02851 | 8.29596 | 21685 ft | 392 kts | 61° |
| 2026-05-04 07:15 | 44.04188 | 8.32899 | 22078 ft | 394 kts | 61° |
| 2026-05-04 07:15 | 44.05546 | 8.36260 | 22438 ft | 397 kts | 61° |
| 2026-05-04 07:15 | 44.06884 | 8.39574 | 22800 ft | 399 kts | 61° |
| 2026-05-04 07:16 | 44.08241 | 8.42937 | 23160 ft | 402 kts | 61° |
| 2026-05-04 07:16 | 44.09624 | 8.46369 | 23515 ft | 404 kts | 61° |
| 2026-05-04 07:16 | 44.10997 | 8.49783 | 23859 ft | 407 kts | 61° |
| 2026-05-04 07:16 | 44.12366 | 8.53192 | 24200 ft | 409 kts | 61° |
| 2026-05-04 07:17 | 44.13766 | 8.56681 | 24562 ft | 410 kts | 61° |
| 2026-05-04 07:17 | 44.15161 | 8.60162 | 24888 ft | 413 kts | 61° |
| 2026-05-04 07:17 | 44.16567 | 8.63675 | 25200 ft | 415 kts | 62° |
| 2026-05-04 07:17 | 44.17976 | 8.67197 | 25515 ft | 417 kts | 62° |
| 2026-05-04 07:18 | 44.19483 | 8.70711 | 25831 ft | 420 kts | 57° |
| 2026-05-04 07:18 | 44.21212 | 8.73989 | 26126 ft | 422 kts | 51° |
| 2026-05-04 07:18 | 44.23188 | 8.77079 | 26410 ft | 425 kts | 47° |
| 2026-05-04 07:18 | 44.25232 | 8.80041 | 26703 ft | 427 kts | 46° |
| 2026-05-04 07:19 | 44.27316 | 8.83024 | 26992 ft | 429 kts | 46° |
| 2026-05-04 07:19 | 44.29424 | 8.86047 | 27280 ft | 431 kts | 46° |
| 2026-05-04 07:19 | 44.31503 | 8.89040 | 27557 ft | 433 kts | 46° |
| 2026-05-04 07:19 | 44.33593 | 8.92059 | 27839 ft | 434 kts | 46° |
| 2026-05-04 07:20 | 44.35721 | 8.95145 | 28112 ft | 436 kts | 46° |
| 2026-05-04 07:20 | 44.37834 | 8.98214 | 28376 ft | 438 kts | 46° |
| 2026-05-04 07:20 | 44.39951 | 9.01294 | 28635 ft | 440 kts | 46° |
| 2026-05-04 07:20 | 44.42091 | 9.04412 | 28894 ft | 442 kts | 46° |
| 2026-05-04 07:22 | 44.57243 | 9.26598 | 30605 ft | 455 kts | 46° |
| 2026-05-04 07:22 | 44.59363 | 9.29717 | 30825 ft | 457 kts | 46° |
| 2026-05-04 07:23 | 44.61535 | 9.32919 | 31069 ft | 458 kts | 46° |
| 2026-05-04 07:23 | 44.63756 | 9.36195 | 31306 ft | 459 kts | 46° |
| 2026-05-04 07:23 | 44.65971 | 9.39464 | 31544 ft | 461 kts | 46° |
| 2026-05-04 07:23 | 44.68173 | 9.42716 | 31759 ft | 462 kts | 46° |
| 2026-05-04 07:24 | 44.70415 | 9.46033 | 31976 ft | 464 kts | 46° |
| 2026-05-04 07:24 | 44.72652 | 9.49346 | 32200 ft | 465 kts | 46° |
| 2026-05-04 07:24 | 44.74844 | 9.52599 | 32406 ft | 466 kts | 46° |
| 2026-05-04 07:24 | 44.77095 | 9.55944 | 32662 ft | 466 kts | 46° |
| 2026-05-04 07:25 | 44.79335 | 9.59275 | 32953 ft | 465 kts | 46° |
| 2026-05-04 07:26 | 44.94933 | 9.82580 | 34559 ft | 466 kts | 46° |
| 2026-05-04 07:27 | 44.97082 | 9.85806 | 34718 ft | 467 kts | 46° |
| 2026-05-04 07:27 | 44.99332 | 9.89190 | 34872 ft | 468 kts | 46° |
| 2026-05-04 07:27 | 45.01554 | 9.92534 | 35028 ft | 468 kts | 46° |
| 2026-05-04 07:27 | 45.03836 | 9.95972 | 35073 ft | 469 kts | 46° |
| 2026-05-04 07:28 | 45.08316 | 10.02735 | 35090 ft | 469 kts | 46° |
| 2026-05-04 07:28 | 45.12801 | 10.09520 | 35087 ft | 468 kts | 46° |
| 2026-05-04 07:29 | 45.17270 | 10.16299 | 35087 ft | 468 kts | 46° |
| 2026-05-04 07:29 | 45.21743 | 10.23101 | 35083 ft | 468 kts | 46° |
| 2026-05-04 07:30 | 45.26223 | 10.29932 | 35081 ft | 468 kts | 46° |
| 2026-05-04 07:30 | 45.30682 | 10.36749 | 35087 ft | 467 kts | 46° |
| 2026-05-04 07:31 | 45.35084 | 10.43495 | 35084 ft | 466 kts | 46° |
| 2026-05-04 07:33 | 45.52766 | 10.70751 | 35083 ft | 466 kts | 47° |
| 2026-05-04 07:33 | 45.57184 | 10.77608 | 35081 ft | 465 kts | 47° |
| 2026-05-04 07:34 | 45.61551 | 10.84400 | 35083 ft | 465 kts | 47° |
| 2026-05-04 07:34 | 45.65929 | 10.91225 | 35088 ft | 465 kts | 47° |
| 2026-05-04 07:35 | 45.70297 | 10.98052 | 35094 ft | 466 kts | 47° |
| 2026-05-04 07:35 | 45.74691 | 11.04935 | 35092 ft | 465 kts | 47° |
| 2026-05-04 07:36 | 45.79034 | 11.11758 | 35092 ft | 465 kts | 47° |
| 2026-05-04 07:38 | 45.96415 | 11.39233 | 35096 ft | 462 kts | 47° |
| 2026-05-04 07:38 | 46.00744 | 11.46119 | 35100 ft | 463 kts | 47° |
| 2026-05-04 07:39 | 46.05065 | 11.53011 | 35113 ft | 463 kts | 47° |
| 2026-05-04 07:39 | 46.09398 | 11.59937 | 35107 ft | 463 kts | 47° |
| 2026-05-04 07:40 | 46.13714 | 11.66853 | 35112 ft | 463 kts | 47° |
| 2026-05-04 07:40 | 46.18011 | 11.73757 | 35117 ft | 462 kts | 47° |
| 2026-05-04 07:41 | 46.22255 | 11.80596 | 35119 ft | 461 kts | 47° |
| 2026-05-04 07:41 | 46.26595 | 11.87606 | 35122 ft | 462 kts | 47° |
| 2026-05-04 07:42 | 46.30881 | 11.94547 | 35117 ft | 462 kts | 47° |
| 2026-05-04 07:42 | 46.35142 | 12.01462 | 35129 ft | 462 kts | 47° |
| 2026-05-04 07:43 | 46.39461 | 12.08490 | 35124 ft | 462 kts | 47° |
| 2026-05-04 07:43 | 46.43761 | 12.15507 | 35125 ft | 463 kts | 47° |
| 2026-05-04 07:44 | 46.48033 | 12.22494 | 35121 ft | 462 kts | 47° |
| 2026-05-04 07:44 | 46.52291 | 12.29481 | 35123 ft | 462 kts | 47° |
| 2026-05-04 07:45 | 46.56517 | 12.36430 | 35125 ft | 461 kts | 47° |
| 2026-05-04 07:45 | 46.60770 | 12.43444 | 35136 ft | 461 kts | 47° |
| 2026-05-04 07:46 | 46.65023 | 12.50473 | 35139 ft | 461 kts | 47° |
| 2026-05-04 07:46 | 46.69250 | 12.57483 | 35141 ft | 461 kts | 47° |
| 2026-05-04 07:47 | 46.73348 | 12.64707 | 35134 ft | 463 kts | 50° |
| 2026-05-04 07:49 | 46.89315 | 12.94209 | 35113 ft | 462 kts | 50° |
| 2026-05-04 07:49 | 46.93284 | 13.01581 | 35117 ft | 461 kts | 50° |
| 2026-05-04 07:50 | 46.97245 | 13.08959 | 35131 ft | 461 kts | 50° |
| 2026-05-04 07:50 | 47.01212 | 13.16367 | 35142 ft | 461 kts | 50° |
| 2026-05-04 07:51 | 47.05184 | 13.23807 | 35143 ft | 461 kts | 50° |
| 2026-05-04 07:51 | 47.09117 | 13.31194 | 35138 ft | 461 kts | 50° |
| 2026-05-04 07:52 | 47.13068 | 13.38633 | 35128 ft | 461 kts | 50° |
| 2026-05-04 07:52 | 47.17021 | 13.46095 | 35122 ft | 461 kts | 50° |
| 2026-05-04 07:54 | 47.32782 | 13.76053 | 35114 ft | 460 kts | 51° |
| 2026-05-04 07:55 | 47.36650 | 13.83456 | 35110 ft | 460 kts | 51° |
| 2026-05-04 07:55 | 47.40577 | 13.90994 | 35112 ft | 460 kts | 51° |
| 2026-05-04 07:56 | 47.44453 | 13.98452 | 35110 ft | 459 kts | 51° |
| 2026-05-04 07:56 | 47.48354 | 14.05980 | 35096 ft | 459 kts | 51° |
| 2026-05-04 07:57 | 47.52230 | 14.13478 | 35085 ft | 459 kts | 51° |
| 2026-05-04 07:57 | 47.56114 | 14.21015 | 35076 ft | 460 kts | 51° |
| 2026-05-04 07:58 | 47.59985 | 14.28547 | 35072 ft | 459 kts | 51° |
| 2026-05-04 07:58 | 47.63862 | 14.36110 | 35068 ft | 460 kts | 51° |
| 2026-05-04 07:59 | 47.67711 | 14.43637 | 35061 ft | 459 kts | 51° |
| 2026-05-04 07:59 | 47.71562 | 14.51191 | 35059 ft | 459 kts | 51° |
| 2026-05-04 08:00 | 47.75417 | 14.58777 | 35064 ft | 459 kts | 51° |
| 2026-05-04 08:02 | 47.90790 | 14.89227 | 35046 ft | 460 kts | 51° |
| 2026-05-04 08:02 | 47.94606 | 14.96840 | 35040 ft | 459 kts | 52° |
| 2026-05-04 08:03 | 47.98418 | 15.04466 | 35033 ft | 459 kts | 52° |
| 2026-05-04 08:03 | 48.02255 | 15.12166 | 35033 ft | 458 kts | 51° |
| 2026-05-04 08:04 | 48.05989 | 15.19679 | 35035 ft | 458 kts | 51° |
| 2026-05-04 08:04 | 48.09842 | 15.27449 | 35037 ft | 459 kts | 51° |
| 2026-05-04 08:05 | 48.13652 | 15.35156 | 35039 ft | 459 kts | 51° |
| 2026-05-04 08:05 | 48.17453 | 15.42868 | 35037 ft | 459 kts | 52° |
| 2026-05-04 08:06 | 48.21237 | 15.50566 | 35038 ft | 458 kts | 52° |
| 2026-05-04 08:06 | 48.24984 | 15.58211 | 35035 ft | 457 kts | 51° |
| 2026-05-04 08:08 | 48.40023 | 15.89115 | 35026 ft | 457 kts | 52° |
| 2026-05-04 08:11 | 48.56778 | 16.23958 | 35018 ft | 457 kts | 52° |
| 2026-05-04 08:11 | 48.62363 | 16.35678 | 35021 ft | 456 kts | 52° |
| 2026-05-04 08:12 | 48.66075 | 16.43495 | 35021 ft | 456 kts | 52° |
| 2026-05-04 08:12 | 48.69765 | 16.51288 | 35024 ft | 456 kts | 52° |
| 2026-05-04 08:13 | 48.73473 | 16.59138 | 35023 ft | 456 kts | 52° |
| 2026-05-04 08:13 | 48.77148 | 16.66946 | 35025 ft | 456 kts | 53° |
| 2026-05-04 08:14 | 48.80827 | 16.74782 | 35027 ft | 456 kts | 53° |
| 2026-05-04 08:16 | 48.95490 | 17.06246 | 35030 ft | 457 kts | 53° |
| 2026-05-04 08:16 | 48.99152 | 17.14163 | 35036 ft | 457 kts | 53° |
| 2026-05-04 08:17 | 49.02795 | 17.22059 | 35039 ft | 457 kts | 53° |
| 2026-05-04 08:17 | 49.06444 | 17.29993 | 35042 ft | 457 kts | 53° |
| 2026-05-04 08:19 | 49.20922 | 17.61712 | 35054 ft | 456 kts | 53° |
| 2026-05-04 08:20 | 49.24555 | 17.69728 | 35055 ft | 456 kts | 54° |
| 2026-05-04 08:20 | 49.28170 | 17.77728 | 35056 ft | 456 kts | 54° |
| 2026-05-04 08:21 | 49.31764 | 17.85706 | 35054 ft | 456 kts | 54° |
| 2026-05-04 08:21 | 49.35355 | 17.93702 | 35057 ft | 456 kts | 54° |
| 2026-05-04 08:22 | 49.38947 | 18.01725 | 35059 ft | 455 kts | 54° |
| 2026-05-04 08:24 | 49.53204 | 18.33811 | 35064 ft | 455 kts | 54° |
| 2026-05-04 08:24 | 49.56742 | 18.41832 | 35072 ft | 454 kts | 54° |
| 2026-05-04 08:25 | 49.60303 | 18.49932 | 35063 ft | 454 kts | 54° |
| 2026-05-04 08:25 | 49.63815 | 18.57946 | 35054 ft | 453 kts | 54° |
| 2026-05-04 08:27 | 49.80019 | 18.87554 | 35066 ft | 449 kts | 44° |
| 2026-05-04 08:28 | 49.84385 | 18.94444 | 35065 ft | 449 kts | 44° |
| 2026-05-04 08:28 | 49.88763 | 19.01384 | 35059 ft | 449 kts | 44° |
| 2026-05-04 08:29 | 49.93117 | 19.08313 | 35054 ft | 449 kts | 44° |
| 2026-05-04 08:31 | 50.10541 | 19.36231 | 35037 ft | 448 kts | 44° |
| 2026-05-04 08:33 | 50.27825 | 19.64240 | 35043 ft | 448 kts | 44° |
| 2026-05-04 08:35 | 50.45090 | 19.92532 | 35035 ft | 448 kts | 45° |
| 2026-05-04 08:35 | 50.49366 | 19.99591 | 35032 ft | 448 kts | 45° |
| 2026-05-04 08:37 | 50.65082 | 20.13484 | 32456 ft | 437 kts | 9° |
| 2026-05-04 08:37 | 50.68086 | 20.14385 | 31783 ft | 437 kts | 9° |
| 2026-05-04 08:37 | 50.71078 | 20.15277 | 31114 ft | 436 kts | 9° |
| 2026-05-04 08:38 | 50.74066 | 20.16177 | 30436 ft | 435 kts | 9° |
| 2026-05-04 08:38 | 50.76996 | 20.17069 | 29791 ft | 434 kts | 9° |
| 2026-05-04 08:38 | 50.79949 | 20.17975 | 29127 ft | 434 kts | 9° |
| 2026-05-04 08:40 | 51.00404 | 20.24529 | 24979 ft | 416 kts | 19° |
| 2026-05-04 08:40 | 51.02992 | 20.26604 | 24580 ft | 409 kts | 27° |
| 2026-05-04 08:40 | 51.05444 | 20.28813 | 24179 ft | 403 kts | 28° |
| 2026-05-04 08:41 | 51.07864 | 20.31021 | 23777 ft | 397 kts | 28° |
| 2026-05-04 08:41 | 51.10258 | 20.33208 | 23373 ft | 392 kts | 28° |
| 2026-05-04 08:41 | 51.12617 | 20.35363 | 22974 ft | 389 kts | 28° |
| 2026-05-04 08:41 | 51.14971 | 20.37508 | 22493 ft | 387 kts | 28° |
| 2026-05-04 08:42 | 51.17352 | 20.39679 | 21609 ft | 395 kts | 28° |
| 2026-05-04 08:42 | 51.19749 | 20.41864 | 20829 ft | 397 kts | 28° |
| 2026-05-04 08:42 | 51.22133 | 20.44043 | 20077 ft | 394 kts | 28° |
| 2026-05-04 08:42 | 51.24484 | 20.46195 | 19311 ft | 391 kts | 27° |
| 2026-05-04 08:43 | 51.26853 | 20.48364 | 18536 ft | 388 kts | 27° |
| 2026-05-04 08:43 | 51.29165 | 20.50481 | 17792 ft | 384 kts | 27° |
| 2026-05-04 08:43 | 51.31464 | 20.52589 | 16948 ft | 380 kts | 27° |
| 2026-05-04 08:43 | 51.33730 | 20.54669 | 16077 ft | 376 kts | 27° |
| 2026-05-04 08:44 | 51.36005 | 20.56759 | 15221 ft | 373 kts | 27° |
| 2026-05-04 08:44 | 51.38252 | 20.58828 | 14373 ft | 369 kts | 27° |
| 2026-05-04 08:46 | 51.52714 | 20.72197 | 11022 ft | 330 kts | 28° |
| 2026-05-04 08:46 | 51.54697 | 20.74034 | 10634 ft | 329 kts | 28° |
| 2026-05-04 08:46 | 51.56680 | 20.75875 | 10264 ft | 327 kts | 28° |
| 2026-05-04 08:46 | 51.58609 | 20.77671 | 10103 ft | 316 kts | 28° |
| 2026-05-04 08:47 | 51.60478 | 20.79413 | 10033 ft | 302 kts | 28° |
| 2026-05-04 08:47 | 51.62270 | 20.81085 | 9805 ft | 297 kts | 28° |
| 2026-05-04 08:47 | 51.64055 | 20.82748 | 9436 ft | 296 kts | 28° |
| 2026-05-04 08:47 | 51.65833 | 20.84407 | 9085 ft | 295 kts | 28° |
| 2026-05-04 08:48 | 51.67612 | 20.86067 | 8737 ft | 294 kts | 28° |
| 2026-05-04 08:48 | 51.69387 | 20.87727 | 8391 ft | 292 kts | 28° |
| 2026-05-04 08:48 | 51.71125 | 20.89353 | 8050 ft | 290 kts | 28° |
| 2026-05-04 08:48 | 51.72895 | 20.91011 | 7716 ft | 288 kts | 28° |
| 2026-05-04 08:49 | 51.74631 | 20.92639 | 7387 ft | 286 kts | 28° |
| 2026-05-04 08:50 | 51.84802 | 21.02202 | 5383 ft | 277 kts | 28° |
| 2026-05-04 08:50 | 51.86488 | 21.03792 | 5055 ft | 276 kts | 28° |
| 2026-05-04 08:51 | 51.88156 | 21.05367 | 4728 ft | 275 kts | 28° |
| 2026-05-04 08:51 | 51.89794 | 21.06916 | 4408 ft | 274 kts | 28° |
| 2026-05-04 08:51 | 51.91440 | 21.08473 | 4083 ft | 273 kts | 28° |
| 2026-05-04 08:51 | 51.93076 | 21.10023 | 3764 ft | 272 kts | 28° |
| 2026-05-04 08:52 | 51.94715 | 21.11577 | 3447 ft | 271 kts | 28° |
| 2026-05-04 08:52 | 51.96360 | 21.13011 | 3289 ft | 258 kts | 16° |
| 2026-05-04 08:52 | 51.98039 | 21.13164 | 3188 ft | 234 kts | 336° |
| 2026-05-04 08:52 | 51.99430 | 21.11983 | 3193 ft | 222 kts | 323° |
| 2026-05-04 08:53 | 52.00749 | 21.10671 | 3119 ft | 222 kts | 324° |
| 2026-05-04 08:54 | 52.09346 | 21.03055 | 1671 ft | 165 kts | 325° |
| 2026-05-04 08:55 | 52.10321 | 21.02199 | 1473 ft | 154 kts | 325° |
| 2026-05-04 08:55 | 52.11238 | 21.01392 | 1264 ft | 147 kts | 326° |
| 2026-05-04 08:55 | 52.12139 | 21.00596 | 1086 ft | 148 kts | 326° |
| 2026-05-04 08:55 | 52.13048 | 20.99797 | 903 ft | 146 kts | 327° |
| 2026-05-04 08:57 | 52.17351 | 20.96250 | 337 ft | 14 kts | 5° |
| 2026-05-04 09:01 | 52.17144 | 20.96856 | 333 ft | 9 kts | 152° |
| 2026-05-04 09:01 | 52.17085 | 20.96908 | 333 ft | 9 kts | 152° |
| 2026-05-04 09:01 | 52.17030 | 20.96958 | 333 ft | 8 kts | 150° |
| 2026-05-04 09:01 | 52.17000 | 20.96909 | 332 ft | 8 kts | 261° |
| 2026-05-04 09:02 | 52.17001 | 20.96843 | 331 ft | 2 kts | 277° |
| 2026-05-04 09:02 | 52.17001 | 20.96841 | 331 ft | 0 kts | 278° |